TimeCST,TemperatureF,Dew PointF,Humidity,Sea Level PressureIn,VisibilityMPH,Wind Direction,Wind SpeedMPH,Gust SpeedMPH,PrecipitationIn,Events,Conditions,WindDirDegrees,DateUTC
1:53 AM,55.9,46.0,69,30.03,10.0,SSE,10.4,-,N/A,,Clear,150,2012-11-18 07:53:00
2:53 AM,55.0,46.0,72,30.02,10.0,SSE,11.5,-,N/A,,Clear,150,2012-11-18 08:53:00
3:53 AM,54.0,45.0,72,30.01,10.0,SSE,10.4,-,N/A,,Clear,160,2012-11-18 09:53:00
4:53 AM,54.0,45.0,72,29.99,10.0,SSE,15.0,-,N/A,,Clear,160,2012-11-18 10:53:00
5:53 AM,55.0,45.0,69,30.01,10.0,SSE,12.7,-,N/A,,Mostly Cloudy,160,2012-11-18 11:53:00
6:53 AM,55.0,46.9,74,30.02,10.0,SSE,10.4,-,0.00,,Scattered Clouds,150,2012-11-18 12:53:00
7:53 AM,55.0,46.9,74,30.04,10.0,SSE,9.2,-,N/A,,Clear,160,2012-11-18 13:53:00
8:53 AM,57.0,46.0,67,30.05,10.0,SSE,13.8,-,N/A,,Mostly Cloudy,150,2012-11-18 14:53:00
9:53 AM,57.0,46.0,67,30.07,10.0,SE,10.4,-,N/A,,Mostly Cloudy,130,2012-11-18 15:53:00
10:53 AM,60.1,46.9,62,30.10,10.0,SSE,10.4,-,N/A,,Overcast,150,2012-11-18 16:53:00
11:53 AM,62.1,50.0,65,30.08,10.0,SE,11.5,-,0.00,,Mostly Cloudy,130,2012-11-18 17:53:00
12:53 PM,64.0,50.0,60,30.05,10.0,SSE,10.4,-,N/A,,Partly Cloudy,150,2012-11-18 18:53:00
1:53 PM,66.9,50.0,54,30.03,10.0,ESE,5.8,-,N/A,,Clear,120,2012-11-18 19:53:00
2:53 PM,70.0,48.9,47,30.02,10.0,Variable,3.5,-,N/A,,Clear,0,2012-11-18 20:53:00
3:53 PM,68.0,48.9,50,30.03,10.0,ENE,9.2,-,N/A,,Clear,70,2012-11-18 21:53:00
4:53 PM,66.0,48.0,52,30.05,10.0,ESE,6.9,-,N/A,,Clear,110,2012-11-18 22:53:00
5:53 PM,62.1,48.9,62,30.06,10.0,SE,9.2,-,N/A,,Clear,130,2012-11-18 23:53:00
6:53 PM,60.1,48.9,67,30.07,10.0,SE,11.5,-,N/A,,Clear,140,2012-11-19 00:53:00
7:53 PM,60.1,48.9,67,30.09,10.0,SE,10.4,-,N/A,,Clear,130,2012-11-19 01:53:00
8:53 PM,59.0,48.9,69,30.10,10.0,SE,9.2,-,N/A,,Clear,140,2012-11-19 02:53:00
9:53 PM,57.9,48.0,70,30.10,10.0,SSE,9.2,-,N/A,,Clear,150,2012-11-19 03:53:00
10:53 PM,55.9,48.0,75,30.10,10.0,SSE,9.2,-,N/A,,Clear,160,2012-11-19 04:53:00
11:53 PM,55.9,46.9,72,30.09,10.0,South,8.1,-,N/A,,Clear,170,2012-11-19 05:53:00